createdAt,value
2018-12-29T00:00:33.577Z,10.40
2018-12-29T00:02:59.865Z,8.87
2018-12-29T00:05:26.121Z,10.90
2018-12-29T00:07:52.772Z,12.00
2018-12-29T00:10:19.369Z,10.03
2018-12-29T00:12:45.628Z,9.27
2018-12-29T00:15:12.308Z,8.57
2018-12-29T00:17:39.185Z,7.50
2018-12-29T00:20:05.805Z,9.20
2018-12-29T00:22:32.401Z,8.20
2018-12-29T00:24:59.033Z,9.00
2018-12-29T00:27:25.266Z,8.60
2018-12-29T00:29:51.909Z,8.27
2018-12-29T00:32:18.518Z,8.50
2018-12-29T00:34:45.385Z,8.53
2018-12-29T00:37:11.621Z,7.63
2018-12-29T00:39:40.138Z,8.17
2018-12-29T00:42:06.362Z,10.53
2018-12-29T00:44:32.991Z,9.67
2018-12-29T00:46:59.218Z,8.20
2018-12-29T00:49:25.485Z,8.93
2018-12-29T00:51:51.725Z,9.43
2018-12-29T00:54:17.982Z,8.63
2018-12-29T00:56:44.590Z,10.10
2018-12-29T00:59:11.205Z,9.60
2018-12-29T01:01:37.790Z,8.93
2018-12-29T01:04:04.090Z,8.20
2018-12-29T01:06:30.994Z,9.97
2018-12-29T01:08:57.613Z,8.47
2018-12-29T01:11:24.203Z,9.43
2018-12-29T01:13:50.582Z,8.70
2018-12-29T01:16:17.187Z,8.97
2018-12-29T01:18:43.789Z,10.03
2018-12-29T01:21:10.398Z,9.13
2018-12-29T01:23:36.631Z,8.43
2018-12-29T01:26:03.669Z,8.93
2018-12-29T01:28:29.805Z,9.60
2018-12-29T01:30:56.441Z,10.83
2018-12-29T01:33:22.674Z,10.40
2018-12-29T01:35:48.931Z,9.77
2018-12-29T01:38:15.158Z,8.17
2018-12-29T01:40:41.897Z,10.63
2018-12-29T01:43:08.129Z,9.33
2018-12-29T01:45:34.400Z,10.83
2018-12-29T01:48:00.625Z,10.70
2018-12-29T01:50:27.248Z,11.33
2018-12-29T01:52:53.488Z,9.60
2018-12-29T01:55:19.748Z,10.20
2018-12-29T01:57:46.337Z,13.00
2018-12-29T02:00:12.595Z,9.00
2018-12-29T02:02:39.233Z,9.80
2018-12-29T02:05:05.943Z,10.20
2018-12-29T02:07:32.560Z,10.33
2018-12-29T02:09:58.818Z,11.67
2018-12-29T02:12:25.678Z,11.90
2018-12-29T02:14:51.942Z,10.70
2018-12-29T02:17:18.529Z,10.80
2018-12-29T02:19:45.234Z,11.57
2018-12-29T02:22:11.754Z,9.93
2018-12-29T02:24:37.996Z,11.17
2018-12-29T02:27:04.621Z,10.23
2018-12-29T02:29:30.842Z,11.53
2018-12-29T02:31:57.122Z,10.80
2018-12-29T02:34:23.349Z,10.43
2018-12-29T02:36:50.423Z,9.93
2018-12-29T02:39:16.960Z,9.13
2018-12-29T02:41:43.318Z,8.00
2018-12-29T02:44:09.913Z,8.70
2018-12-29T02:46:36.193Z,8.23
2018-12-29T02:49:02.445Z,8.53
2018-12-29T02:51:28.702Z,9.07
2018-12-29T02:53:54.925Z,9.00
2018-12-29T02:56:21.538Z,8.30
2018-12-29T02:58:47.771Z,9.90
2018-12-29T03:01:14.040Z,8.90
2018-12-29T03:03:40.301Z,8.17
2018-12-29T03:06:06.586Z,6.70
2018-12-29T03:08:33.206Z,7.83
2018-12-29T03:11:00.103Z,7.50
2018-12-29T03:13:26.702Z,8.00
2018-12-29T03:15:52.967Z,7.43
2018-12-29T03:18:19.469Z,8.40
2018-12-29T03:20:45.716Z,9.63
2018-12-29T03:23:11.977Z,13.07
2018-12-29T03:25:38.566Z,9.63
2018-12-29T03:28:05.189Z,9.87
2018-12-29T03:30:31.416Z,11.63
2018-12-29T03:32:58.042Z,10.80
2018-12-29T03:35:24.266Z,11.10
2018-12-29T03:37:50.535Z,10.67
2018-12-29T03:40:16.775Z,9.63
2018-12-29T03:42:43.385Z,10.33
2018-12-29T03:45:09.610Z,10.87
2018-12-29T03:47:35.873Z,10.13
2018-12-29T03:50:02.588Z,8.73
2018-12-29T03:52:29.203Z,8.87
2018-12-29T03:54:55.437Z,10.50
2018-12-29T03:57:22.069Z,12.40
2018-12-29T03:59:48.293Z,11.73
2018-12-29T04:02:14.918Z,13.03
2018-12-29T04:04:41.539Z,12.43
2018-12-29T04:07:08.189Z,11.50
2018-12-29T04:09:34.498Z,11.17
2018-12-29T04:12:02.531Z,11.67
2018-12-29T04:14:28.754Z,11.80
2018-12-29T04:16:54.985Z,11.40
2018-12-29T04:19:21.618Z,11.60
2018-12-29T04:21:48.201Z,12.37
2018-12-29T04:24:14.798Z,12.47
2018-12-29T04:26:41.023Z,9.87
2018-12-29T04:29:07.309Z,11.73
2018-12-29T04:31:33.521Z,11.43
2018-12-29T04:33:59.785Z,13.57
2018-12-29T04:36:26.374Z,12.07
2018-12-29T04:38:53.115Z,13.23
2018-12-29T04:41:19.701Z,11.43
2018-12-29T04:43:46.155Z,14.70
2018-12-29T04:46:12.650Z,11.67
2018-12-29T04:48:38.901Z,13.23
2018-12-29T04:51:05.133Z,12.13
2018-12-29T04:53:31.760Z,12.97
2018-12-29T04:55:57.992Z,13.30
2018-12-29T04:58:24.597Z,14.63
2018-12-29T05:00:50.811Z,14.20
2018-12-29T05:03:17.433Z,12.80
2018-12-29T05:05:43.701Z,12.33
2018-12-29T05:08:10.310Z,10.80
2018-12-29T05:10:36.903Z,11.47
2018-12-29T05:13:03.533Z,10.67
2018-12-29T05:15:29.766Z,12.07
2018-12-29T05:17:56.359Z,12.27
2018-12-29T05:20:22.974Z,13.27
2018-12-29T05:22:49.199Z,11.63
2018-12-29T05:25:15.819Z,11.70
2018-12-29T05:27:42.399Z,12.07
2018-12-29T05:30:09.294Z,10.30
2018-12-29T05:32:35.878Z,10.20
2018-12-29T05:35:02.147Z,11.17
2018-12-29T05:37:28.389Z,8.40
2018-12-29T05:39:55.015Z,8.47
2018-12-29T05:42:21.597Z,8.60
2018-12-29T05:44:47.857Z,7.97
2018-12-29T05:47:14.357Z,9.17
2018-12-29T05:49:40.977Z,7.10
2018-12-29T05:52:07.199Z,7.60
2018-12-29T05:54:33.453Z,7.67
2018-12-29T05:57:00.042Z,8.80
2018-12-29T05:59:26.657Z,7.60
2018-12-29T06:01:53.259Z,8.80
2018-12-29T06:04:19.896Z,8.87
2018-12-29T06:06:46.154Z,8.13
2018-12-29T06:09:12.820Z,8.17
2018-12-29T06:11:39.409Z,8.90
2018-12-29T06:14:05.669Z,9.17
2018-12-29T06:16:32.001Z,11.70
2018-12-29T06:18:58.582Z,9.33
2018-12-29T06:21:25.201Z,7.70
2018-12-29T06:23:51.446Z,8.53
2018-12-29T06:26:17.952Z,7.67
2018-12-29T06:28:44.549Z,8.27
2018-12-29T06:31:11.153Z,9.47
2018-12-29T06:33:37.751Z,9.47
2018-12-29T06:36:04.021Z,8.30
2018-12-29T06:38:30.613Z,8.37
2018-12-29T06:40:56.865Z,8.13
2018-12-29T06:43:23.102Z,7.33
2018-12-29T06:45:49.729Z,7.67
2018-12-29T06:48:15.958Z,7.37
2018-12-29T06:50:42.227Z,7.27
2018-12-29T06:53:08.808Z,8.43
2018-12-29T06:55:35.069Z,7.47
2018-12-29T06:58:01.318Z,7.10
2018-12-29T07:00:27.942Z,7.33
2018-12-29T07:02:54.653Z,8.27
2018-12-29T07:05:20.934Z,8.47
2018-12-29T07:07:47.565Z,7.93
2018-12-29T07:10:14.215Z,8.37
2018-12-29T07:12:40.439Z,8.43
2018-12-29T07:15:07.129Z,7.37
2018-12-29T07:17:33.403Z,8.80
2018-12-29T07:19:59.640Z,9.47
2018-12-29T07:22:25.901Z,8.60
2018-12-29T07:24:52.497Z,8.10
2018-12-29T07:27:19.116Z,7.10
2018-12-29T07:29:45.337Z,8.03
2018-12-29T07:32:11.606Z,8.90
2018-12-29T07:34:37.830Z,6.90
2018-12-29T07:37:04.449Z,9.93
2018-12-29T07:39:31.042Z,9.37
2018-12-29T07:41:57.301Z,9.90
2018-12-29T07:44:23.537Z,9.50
2018-12-29T07:46:49.866Z,8.87
2018-12-29T07:49:16.478Z,9.37
2018-12-29T07:51:43.100Z,9.23
2018-12-29T07:54:09.695Z,9.17
2018-12-29T07:56:36.318Z,8.10
2018-12-29T07:59:02.550Z,8.60
2018-12-29T08:01:28.808Z,7.07
2018-12-29T08:03:55.397Z,8.20
2018-12-29T08:06:22.050Z,8.43
2018-12-29T08:08:48.309Z,9.83
2018-12-29T08:11:14.901Z,9.33
2018-12-29T08:13:41.521Z,8.37
2018-12-29T08:16:08.109Z,8.37
2018-12-29T08:18:34.358Z,8.77
2018-12-29T08:21:00.601Z,9.20
2018-12-29T08:23:27.121Z,10.13
2018-12-29T08:25:53.366Z,9.83
2018-12-29T08:28:19.981Z,8.87
2018-12-29T08:30:46.565Z,9.33
2018-12-29T08:33:13.186Z,9.10
2018-12-29T08:35:39.778Z,9.93
2018-12-29T08:38:06.382Z,11.00
2018-12-29T08:40:32.605Z,11.03
2018-12-29T08:42:59.221Z,10.33
2018-12-29T08:45:25.461Z,10.90
2018-12-29T08:47:51.727Z,10.67
2018-12-29T08:50:18.322Z,11.50
2018-12-29T08:52:44.931Z,9.73
2018-12-29T08:55:11.541Z,9.97
2018-12-29T08:57:37.797Z,10.07
2018-12-29T09:00:05.530Z,12.30
2018-12-29T09:02:32.141Z,11.27
2018-12-29T09:04:58.749Z,11.07
2018-12-29T09:07:25.050Z,9.33
2018-12-29T09:09:51.663Z,12.83
2018-12-29T09:12:19.349Z,9.73
2018-12-29T09:14:45.586Z,9.97
2018-12-29T09:17:12.529Z,10.03
2018-12-29T09:19:39.177Z,11.47
2018-12-29T09:22:05.774Z,9.47
2018-12-29T09:24:32.030Z,10.87
2018-12-29T09:26:58.263Z,10.17
2018-12-29T09:29:24.542Z,9.33
2018-12-29T09:31:50.762Z,12.97
2018-12-29T09:34:22.357Z,10.93
2018-12-29T09:36:45.403Z,8.40
2018-12-29T09:39:12.014Z,10.03
2018-12-29T09:41:38.607Z,8.50
2018-12-29T09:44:05.489Z,9.13
2018-12-29T09:46:32.077Z,10.67
2018-12-29T09:48:58.687Z,10.37
2018-12-29T09:51:25.277Z,9.03
2018-12-29T09:53:51.529Z,9.47
2018-12-29T09:56:18.118Z,12.70
2018-12-29T09:58:44.721Z,9.97
2018-12-29T10:01:11.313Z,11.23
2018-12-29T10:03:37.944Z,11.57
2018-12-29T10:06:04.589Z,10.33
2018-12-29T10:08:31.212Z,10.87
2018-12-29T10:10:57.828Z,10.77
2018-12-29T10:13:24.449Z,10.80
2018-12-29T10:15:51.042Z,10.83
2018-12-29T10:18:17.277Z,9.77
2018-12-29T10:20:43.525Z,13.10
2018-12-29T10:23:10.118Z,11.17
2018-12-29T10:25:36.734Z,10.17
2018-12-29T10:28:03.329Z,10.63
2018-12-29T10:30:29.596Z,9.37
2018-12-29T10:32:56.174Z,9.67
2018-12-29T10:35:22.421Z,9.33
2018-12-29T10:37:48.657Z,8.80
2018-12-29T10:40:15.273Z,9.03
2018-12-29T10:42:41.870Z,8.73
2018-12-29T10:45:08.485Z,7.70
2018-12-29T10:47:34.955Z,7.87
2018-12-29T10:50:01.189Z,8.63
2018-12-29T10:52:27.421Z,8.30
2018-12-29T10:54:53.690Z,8.73
2018-12-29T10:57:20.281Z,8.40
2018-12-29T10:59:46.901Z,8.67
2018-12-29T11:02:13.489Z,7.97
2018-12-29T11:04:39.819Z,8.03
2018-12-29T11:07:06.365Z,9.03
2018-12-29T11:09:32.669Z,8.23
2018-12-29T11:11:59.282Z,9.00
2018-12-29T11:14:25.900Z,8.53
2018-12-29T11:16:52.484Z,8.70
2018-12-29T11:19:19.077Z,10.03
2018-12-29T11:21:45.694Z,9.17
2018-12-29T11:24:11.926Z,10.10
2018-12-29T11:26:38.177Z,8.70
2018-12-29T11:29:04.779Z,8.47
2018-12-29T11:31:31.033Z,9.70
2018-12-29T11:33:57.657Z,8.60
2018-12-29T11:36:24.269Z,9.27
2018-12-29T11:38:50.532Z,8.57
2018-12-29T11:41:17.153Z,11.43
2018-12-29T11:43:43.385Z,8.63
2018-12-29T11:46:09.645Z,9.30
2018-12-29T11:48:36.245Z,8.97
2018-12-29T11:51:02.852Z,8.57
2018-12-29T11:53:29.633Z,8.87
2018-12-29T11:55:55.889Z,8.70
2018-12-29T11:58:22.113Z,8.57
2018-12-29T12:00:48.589Z,9.60
2018-12-29T12:03:15.179Z,8.23
2018-12-29T12:05:41.473Z,9.03
2018-12-29T12:08:08.098Z,7.93
2018-12-29T12:10:34.738Z,8.60
2018-12-29T12:13:01.239Z,9.17
2018-12-29T12:15:27.835Z,8.63
2018-12-29T12:17:57.492Z,7.30
2018-12-29T12:20:22.843Z,7.73
2018-12-29T12:22:49.453Z,8.20
2018-12-29T12:25:15.710Z,8.23
2018-12-29T12:27:42.269Z,8.50
2018-12-29T12:30:08.891Z,8.17
2018-12-29T12:32:35.130Z,9.23
2018-12-29T12:35:02.000Z,8.23
2018-12-29T12:37:28.266Z,7.90
2018-12-29T12:39:55.257Z,8.40
2018-12-29T12:42:21.871Z,8.67
2018-12-29T12:44:48.461Z,8.30
2018-12-29T12:47:15.285Z,10.07
2018-12-29T12:49:41.881Z,9.33
2018-12-29T12:52:08.121Z,8.97
2018-12-29T12:54:34.711Z,8.63
2018-12-29T12:57:00.971Z,10.00
2018-12-29T12:59:27.501Z,8.93
2018-12-29T13:01:54.114Z,10.00
2018-12-29T13:04:21.075Z,9.97
2018-12-29T13:06:47.366Z,10.07
2018-12-29T13:09:13.629Z,9.67
2018-12-29T13:11:40.185Z,10.67
2018-12-29T13:14:06.421Z,10.57
2018-12-29T13:16:33.049Z,10.57
2018-12-29T13:18:59.642Z,10.27
2018-12-29T13:21:26.239Z,9.60
2018-12-29T13:23:52.483Z,11.33
2018-12-29T13:26:18.722Z,9.90
2018-12-29T13:28:44.984Z,10.53
2018-12-29T13:31:11.209Z,11.00
2018-12-29T13:33:37.843Z,10.70
2018-12-29T13:36:04.174Z,11.00
2018-12-29T13:38:30.418Z,10.97
2018-12-29T13:40:56.662Z,10.57
2018-12-29T13:43:22.924Z,10.27
2018-12-29T13:45:49.558Z,10.23
2018-12-29T13:48:20.705Z,10.07
2018-12-29T13:50:44.298Z,11.73
2018-12-29T13:53:10.917Z,12.43
2018-12-29T13:55:37.504Z,11.87
2018-12-29T13:58:04.125Z,9.70
2018-12-29T14:00:30.716Z,11.83
2018-12-29T14:02:57.337Z,11.13
2018-12-29T14:05:23.789Z,10.27
2018-12-29T14:07:50.421Z,11.10
2018-12-29T14:10:18.038Z,11.23
2018-12-29T14:12:44.678Z,10.77
2018-12-29T14:15:11.257Z,10.73
2018-12-29T14:17:37.540Z,9.53
2018-12-29T14:20:04.589Z,11.67
2018-12-29T14:22:30.818Z,10.97
2018-12-29T14:24:57.441Z,9.37
2018-12-29T14:27:24.043Z,10.40
2018-12-29T14:29:50.660Z,9.50
2018-12-29T14:32:17.246Z,9.33
2018-12-29T14:34:43.518Z,8.93
2018-12-29T14:37:09.743Z,8.97
2018-12-29T14:39:36.018Z,8.80
2018-12-29T14:42:03.681Z,10.27
2018-12-29T14:44:30.304Z,10.40
2018-12-29T14:46:57.196Z,9.50
2018-12-29T14:49:23.445Z,9.03
2018-12-29T14:51:50.044Z,10.70
2018-12-29T14:54:16.645Z,8.53
2018-12-29T14:56:43.501Z,8.13
2018-12-29T14:59:09.761Z,8.00
2018-12-29T15:01:36.177Z,9.47
2018-12-29T15:04:02.801Z,8.90
2018-12-29T15:06:29.062Z,7.67
2018-12-29T15:08:55.692Z,9.10
2018-12-29T15:11:22.298Z,7.87
2018-12-29T15:13:48.913Z,9.63
2018-12-29T15:16:15.510Z,8.83
2018-12-29T15:18:43.743Z,7.87
2018-12-29T15:21:10.504Z,7.87
2018-12-29T15:23:37.102Z,8.83
2018-12-29T15:26:03.726Z,7.70
2018-12-29T15:28:30.550Z,9.77
2018-12-29T15:30:56.831Z,9.13
2018-12-29T15:33:23.522Z,8.80
2018-12-29T15:35:49.777Z,8.17
2018-12-29T15:38:16.362Z,8.83
2018-12-29T15:40:42.981Z,9.80
2018-12-29T15:43:09.219Z,8.90
2018-12-29T15:45:36.133Z,9.20
2018-12-29T15:48:02.722Z,10.33
2018-12-29T15:50:28.984Z,10.70
2018-12-29T15:52:55.660Z,9.20
2018-12-29T15:55:21.910Z,9.40
2018-12-29T15:57:48.142Z,8.70
2018-12-29T16:00:14.410Z,8.13
2018-12-29T16:02:41.009Z,8.53
2018-12-29T16:05:07.259Z,7.93
2018-12-29T16:07:34.180Z,8.60
2018-12-29T16:10:00.469Z,8.67
2018-12-29T16:12:26.721Z,10.20
2018-12-29T16:14:53.374Z,8.80
2018-12-29T16:17:19.604Z,8.60
2018-12-29T16:19:46.619Z,7.90
2018-12-29T16:22:13.212Z,7.73
2018-12-29T16:24:39.456Z,8.20
2018-12-29T16:27:06.064Z,8.50
2018-12-29T16:29:32.652Z,7.40
2018-12-29T16:31:58.922Z,8.57
2018-12-29T16:34:25.497Z,8.07
2018-12-29T16:36:52.112Z,8.60
2018-12-29T16:39:18.705Z,7.00
2018-12-29T16:41:45.066Z,6.80
2018-12-29T16:44:11.664Z,8.70
2018-12-29T16:46:37.926Z,8.30
2018-12-29T16:49:06.978Z,7.83
2018-12-29T16:51:32.600Z,9.17
2018-12-29T16:53:58.821Z,8.73
2018-12-29T16:56:25.537Z,9.37
2018-12-29T16:58:51.764Z,9.13
2018-12-29T17:01:18.026Z,8.93
2018-12-29T17:03:44.823Z,8.50
2018-12-29T17:06:11.094Z,8.57
2018-12-29T17:08:37.697Z,8.83
2018-12-29T17:11:04.351Z,8.03
2018-12-29T17:13:30.961Z,7.40
2018-12-29T17:15:57.577Z,7.80
2018-12-29T17:18:23.805Z,9.57
2018-12-29T17:20:50.438Z,9.03
2018-12-29T17:23:17.012Z,9.07
2018-12-29T17:25:43.607Z,8.13
2018-12-29T17:28:10.222Z,8.23
2018-12-29T17:30:36.801Z,8.20
2018-12-29T17:33:03.421Z,8.07
2018-12-29T17:35:29.948Z,8.63
2018-12-29T17:37:56.572Z,8.50
2018-12-29T17:40:22.801Z,8.40
2018-12-29T17:42:49.414Z,7.30
2018-12-29T17:45:16.014Z,8.70
2018-12-29T17:47:42.631Z,8.30
2018-12-29T17:50:09.217Z,8.20
2018-12-29T17:52:35.466Z,7.87
2018-12-29T17:55:02.467Z,8.03
2018-12-29T17:57:29.069Z,10.63
2018-12-29T17:59:55.303Z,8.87
2018-12-29T18:02:21.549Z,8.77
2018-12-29T18:04:48.145Z,8.57
2018-12-29T18:07:14.809Z,8.20
2018-12-29T18:09:41.070Z,7.97
2018-12-29T18:12:07.717Z,7.67
2018-12-29T18:14:33.942Z,8.20
2018-12-29T18:17:00.217Z,8.33
2018-12-29T18:19:30.787Z,8.80
2018-12-29T18:21:55.421Z,7.90
2018-12-29T18:24:21.646Z,7.57
2018-12-29T18:26:48.300Z,6.00
2018-12-29T18:29:14.529Z,7.80
2018-12-29T18:31:41.118Z,7.77
2018-12-29T18:34:08.017Z,7.53
2018-12-29T20:42:43.102Z,8.50
2018-12-29T20:45:09.774Z,7.90
2018-12-29T20:47:36.051Z,9.23
2018-12-29T20:50:09.456Z,8.00
2018-12-29T20:52:31.061Z,7.43
2018-12-29T20:54:57.901Z,8.13
2018-12-29T20:57:24.530Z,7.37
2018-12-29T21:00:09.789Z,8.67
2018-12-29T21:02:36.057Z,10.13
2018-12-29T21:05:02.347Z,10.33
2018-12-29T21:07:28.965Z,9.50
2018-12-29T21:09:55.610Z,9.23
2018-12-29T21:12:22.228Z,11.43
2018-12-29T21:14:48.517Z,10.37
2018-12-29T21:17:15.142Z,10.33
2018-12-29T21:19:42.045Z,11.43
2018-12-29T21:22:08.562Z,11.57
2018-12-29T21:24:35.234Z,11.60
2018-12-29T21:27:02.033Z,10.07
2018-12-29T21:29:28.298Z,8.73
2018-12-29T21:31:55.422Z,9.83
2018-12-29T21:34:22.039Z,9.03
2018-12-29T21:36:48.690Z,9.37
2018-12-29T21:39:15.625Z,9.33
2018-12-29T21:41:42.258Z,9.17
2018-12-29T21:44:08.885Z,9.90
2018-12-29T21:46:35.170Z,7.97
2018-12-29T21:49:02.617Z,8.87
2018-12-29T21:51:29.327Z,8.10
2018-12-29T21:53:55.634Z,9.20
2018-12-29T21:56:21.937Z,8.10
2018-12-29T21:58:48.378Z,8.00
2018-12-29T22:01:15.030Z,9.23
2018-12-29T22:03:41.654Z,7.37
2018-12-29T22:06:08.568Z,7.50
2018-12-29T22:08:35.241Z,7.23
2018-12-29T22:11:02.306Z,7.20
2018-12-29T22:13:28.920Z,7.33
2018-12-29T22:15:55.597Z,7.33
2018-12-29T22:18:21.927Z,6.17
2018-12-29T22:20:48.229Z,5.83
2018-12-29T22:23:14.523Z,5.87
2018-12-29T22:25:48.006Z,7.03
2018-12-29T22:28:09.357Z,6.47
2018-12-29T22:30:35.669Z,5.80
2018-12-29T22:33:01.986Z,6.57
2018-12-29T22:35:28.673Z,5.77
2018-12-29T22:37:55.605Z,5.77
2018-12-29T22:40:22.478Z,5.00
2018-12-29T22:42:51.325Z,4.90
2018-12-29T22:45:19.528Z,4.33
2018-12-29T22:47:46.164Z,4.50
2018-12-29T22:50:12.785Z,4.53
2018-12-29T22:52:39.346Z,3.87
2018-12-29T22:55:05.607Z,3.30
2018-12-29T22:57:31.946Z,3.70
2018-12-29T23:00:00.833Z,2.70
2018-12-29T23:02:27.594Z,2.23
2018-12-29T23:04:54.522Z,3.27
2018-12-29T23:07:21.589Z,2.43
2018-12-29T23:12:14.093Z,3.10
2018-12-29T23:14:40.777Z,2.60
2018-12-29T23:17:07.053Z,2.47
2018-12-29T23:19:33.342Z,3.10
2018-12-29T23:22:00.774Z,2.37
2018-12-29T23:24:27.069Z,1.90
2018-12-29T23:26:53.298Z,2.53
2018-12-29T23:29:20.176Z,2.30
2018-12-29T23:31:46.881Z,2.03
2018-12-29T23:34:13.161Z,2.10
2018-12-29T23:36:39.781Z,2.13
2018-12-29T23:39:06.049Z,2.00
2018-12-29T23:41:32.745Z,2.27
2018-12-29T23:43:59.052Z,1.77
2018-12-29T23:46:25.667Z,2.37
2018-12-29T23:48:52.319Z,2.30
2018-12-29T23:51:18.940Z,1.53
2018-12-29T23:53:45.879Z,1.43
2018-12-29T23:56:12.355Z,1.50
2018-12-29T23:58:38.986Z,1.60
